createdAt,value
2022-09-23T00:01:21.861Z,101811.56
2022-09-23T00:03:49.702Z,101802.91
2022-09-23T00:06:23.008Z,101809.00
2022-09-23T00:08:52.221Z,101811.66
2022-09-23T00:11:25.660Z,101805.59
2022-09-23T00:13:56.791Z,101806.47
2022-09-23T00:16:28.836Z,101806.50
2022-09-23T00:18:56.666Z,101811.69
2022-09-23T00:21:25.081Z,101803.88
2022-09-23T00:23:52.706Z,101804.72
2022-09-23T00:26:22.565Z,101803.03
2022-09-23T00:28:51.027Z,101796.03
2022-09-23T00:31:21.933Z,101794.28
2022-09-23T00:33:56.983Z,101782.13
2022-09-23T00:36:25.305Z,101792.53
2022-09-23T00:38:54.043Z,101773.34
2022-09-23T00:41:22.085Z,101776.84
2022-09-23T00:43:51.102Z,101784.63
2022-09-23T00:46:26.405Z,101782.88
2022-09-23T00:49:00.945Z,101773.22
2022-09-23T00:51:35.643Z,101778.47
2022-09-23T00:54:04.349Z,101773.25
2022-09-23T00:56:33.949Z,101769.78
2022-09-23T00:59:02.400Z,101775.00
2022-09-23T01:01:30.167Z,101776.69
2022-09-23T01:03:58.663Z,101781.88
2022-09-23T01:06:26.336Z,101772.34
2022-09-23T01:08:54.254Z,101776.69
2022-09-23T01:11:39.783Z,101770.63
2022-09-23T01:14:17.003Z,101773.22
2022-09-23T01:16:59.840Z,101773.19
2022-09-23T01:19:45.663Z,101764.50
2022-09-23T01:22:40.157Z,101762.78
2022-09-23T01:25:27.898Z,101758.38
2022-09-23T01:28:37.144Z,101759.25
2022-09-23T01:31:14.876Z,101760.91
2022-09-23T01:34:01.591Z,101757.44
2022-09-23T01:36:44.013Z,101746.97
2022-09-23T01:39:33.873Z,101764.34
2022-09-23T01:42:22.661Z,101750.47
2022-09-23T01:45:16.511Z,101753.97
2022-09-23T01:47:52.345Z,101753.97
2022-09-23T01:50:43.199Z,101757.44
2022-09-23T01:53:22.010Z,101747.03
2022-09-23T01:55:57.293Z,101748.78
2022-09-23T01:58:52.116Z,101753.97
2022-09-23T02:01:31.946Z,101750.53
2022-09-23T02:04:08.618Z,101745.31
2022-09-23T02:06:44.140Z,101746.22
2022-09-23T02:09:17.831Z,101737.53
2022-09-23T02:11:49.020Z,101734.94
2022-09-23T02:14:32.321Z,101727.94
2022-09-23T02:17:08.460Z,101727.91
2022-09-23T02:19:46.166Z,101726.16
2022-09-23T02:22:27.571Z,101731.31
2022-09-23T02:24:57.582Z,101722.66
2022-09-23T02:27:31.256Z,101719.16
2022-09-23T02:30:27.053Z,101713.09
2022-09-23T02:33:04.183Z,101712.19
2022-09-23T02:35:44.039Z,101712.16
2022-09-23T02:38:27.351Z,101704.34
2022-09-23T02:41:05.411Z,101702.59
2022-09-23T02:43:40.130Z,101698.22
2022-09-23T02:46:08.477Z,101702.56
2022-09-23T02:48:53.173Z,101703.44
2022-09-23T02:51:20.974Z,101692.16
2022-09-23T02:53:48.852Z,101699.97
2022-09-23T02:56:19.004Z,101693.03
2022-09-23T02:58:47.897Z,101696.44
2022-09-23T03:01:33.772Z,101691.25
2022-09-23T03:04:17.314Z,101694.72
2022-09-23T03:06:54.165Z,101689.53
2022-09-23T03:09:30.998Z,101688.66
2022-09-23T03:12:14.136Z,101688.63
2022-09-23T03:14:59.711Z,101687.78
2022-09-23T03:17:37.557Z,101687.75
2022-09-23T03:20:35.114Z,101692.06
2022-09-23T03:23:07.897Z,101687.75
2022-09-23T03:25:39.943Z,101682.56
2022-09-23T03:28:08.909Z,101689.47
2022-09-23T03:30:37.848Z,101682.56
2022-09-23T03:33:08.982Z,101679.09
2022-09-23T03:36:01.918Z,101675.66
2022-09-23T03:38:36.139Z,101673.94
2022-09-23T03:41:05.025Z,101667.88
2022-09-23T03:43:37.966Z,101676.53
2022-09-23T03:46:07.172Z,101665.28
2022-09-23T03:48:34.881Z,101663.59
2022-09-23T03:51:20.438Z,101661.00
2022-09-23T03:53:48.190Z,101645.31
2022-09-23T03:56:16.022Z,101658.38
2022-09-23T03:58:45.373Z,101648.00
2022-09-23T04:01:14.791Z,101644.53
2022-09-23T04:03:42.549Z,101644.56
2022-09-23T04:06:10.145Z,101641.09
2022-09-23T04:08:37.866Z,101641.13
2022-09-23T04:11:06.009Z,101643.72
2022-09-23T04:13:33.690Z,101645.47
2022-09-23T04:16:01.650Z,101641.16
2022-09-23T04:18:29.197Z,101639.44
2022-09-23T04:21:00.232Z,101637.72
2022-09-23T04:23:28.462Z,101632.53
2022-09-23T04:25:56.200Z,101636.84
2022-09-23T04:28:24.023Z,101633.41
2022-09-23T04:30:51.777Z,101627.38
2022-09-23T04:33:19.266Z,101631.69
2022-09-23T04:35:51.690Z,101629.13
2022-09-23T04:38:19.818Z,101636.09
2022-09-23T04:40:47.341Z,101634.34
2022-09-23T04:43:16.822Z,101621.34
2022-09-23T04:45:45.066Z,101624.78
2022-09-23T04:48:14.346Z,101627.41
2022-09-23T04:50:42.105Z,101622.22
2022-09-23T04:53:09.561Z,101632.63
2022-09-23T04:55:37.390Z,101629.16
2022-09-23T04:58:04.859Z,101627.47
2022-09-23T05:00:33.550Z,101630.94
2022-09-23T05:03:01.021Z,101629.19
2022-09-23T05:05:29.734Z,101621.41
2022-09-23T05:07:57.864Z,101624.91
2022-09-23T05:10:25.322Z,101625.75
2022-09-23T05:12:57.043Z,101629.25
2022-09-23T05:15:25.002Z,101631.00
2022-09-23T05:17:52.495Z,101630.13
2022-09-23T05:20:20.636Z,101637.94
2022-09-23T05:22:48.097Z,101622.34
2022-09-23T05:25:15.623Z,101635.38
2022-09-23T05:27:43.299Z,101623.25
2022-09-23T05:30:11.531Z,101623.28
2022-09-23T05:32:38.987Z,101631.91
2022-09-23T05:35:06.497Z,101629.34
2022-09-23T05:37:34.211Z,101628.47
2022-09-23T05:40:01.835Z,101631.09
2022-09-23T05:42:29.434Z,101627.69
2022-09-23T05:44:57.003Z,101629.41
2022-09-23T05:47:24.559Z,101633.78
2022-09-23T05:50:00.522Z,101635.50
2022-09-23T05:52:28.565Z,101636.38
2022-09-23T05:54:56.154Z,101630.34
2022-09-23T05:57:23.624Z,101642.53
2022-09-23T05:59:51.131Z,101633.00
2022-09-23T06:02:18.667Z,101633.91
2022-09-23T06:04:46.210Z,101637.41
2022-09-23T06:07:13.690Z,101633.06
2022-09-23T06:09:42.237Z,101631.34
2022-09-23T06:12:09.705Z,101629.66
2022-09-23T06:14:37.152Z,101634.03
2022-09-23T06:17:05.549Z,101638.38
2022-09-23T06:19:32.980Z,101630.59
2022-09-23T06:22:00.437Z,101632.41
2022-09-23T06:24:31.285Z,101621.94
2022-09-23T06:26:58.852Z,101619.44
2022-09-23T06:29:26.493Z,101629.91
2022-09-23T06:31:54.031Z,101623.00
2022-09-23T06:34:21.754Z,101624.78
2022-09-23T06:36:51.536Z,101623.06
2022-09-23T06:39:19.030Z,101616.13
2022-09-23T06:41:46.540Z,101620.56
2022-09-23T06:44:17.079Z,101622.31
2022-09-23T06:46:44.855Z,101621.47
2022-09-23T06:49:12.894Z,101619.75
2022-09-23T06:51:40.607Z,101624.97
2022-09-23T06:54:08.340Z,101626.75
2022-09-23T06:56:39.241Z,101616.34
2022-09-23T06:59:08.901Z,101624.16
2022-09-23T07:01:36.625Z,101619.81
2022-09-23T07:04:04.151Z,101614.63
2022-09-23T07:06:31.687Z,101598.97
2022-09-23T07:08:59.205Z,101609.41
2022-09-23T07:11:27.043Z,101611.19
2022-09-23T07:13:54.563Z,101604.19
2022-09-23T07:16:23.360Z,101605.94
2022-09-23T07:18:52.362Z,101605.94
2022-09-23T07:21:20.363Z,101609.44
2022-09-23T07:23:50.428Z,101612.91
2022-09-23T07:26:19.313Z,101607.66
2022-09-23T07:28:46.986Z,101618.06
2022-09-23T07:31:28.643Z,101614.59
2022-09-23T07:34:03.328Z,101609.34
2022-09-23T07:36:32.720Z,101609.31
2022-09-23T07:39:03.188Z,101623.19
2022-09-23T07:41:32.979Z,101619.63
2022-09-23T07:44:01.226Z,101624.88
2022-09-23T07:46:32.428Z,101614.34
2022-09-23T07:49:00.378Z,101624.75
2022-09-23T07:51:35.699Z,101619.47
2022-09-23T07:54:07.284Z,101614.19
2022-09-23T07:56:36.138Z,101617.63
2022-09-23T07:59:04.486Z,101608.91
2022-09-23T08:01:35.084Z,101606.03
2022-09-23T08:04:12.382Z,101606.72
2022-09-23T08:06:54.590Z,101608.22
2022-09-23T08:09:24.772Z,101608.19
2022-09-23T08:11:52.472Z,101604.66
2022-09-23T08:14:22.269Z,101601.09
2022-09-23T08:16:50.363Z,101603.75
2022-09-23T08:19:18.383Z,101614.88
2022-09-23T08:21:47.874Z,101611.22
2022-09-23T08:24:20.859Z,101609.38
2022-09-23T08:26:49.538Z,101612.63
2022-09-23T08:29:19.208Z,101602.09
2022-09-23T08:31:48.048Z,101602.75
2022-09-23T08:34:16.158Z,101595.81
2022-09-23T08:36:44.261Z,101602.56
2022-09-23T08:39:18.592Z,101602.44
2022-09-23T08:41:58.425Z,101606.75
2022-09-23T08:44:36.034Z,101613.56
2022-09-23T08:47:22.336Z,101601.13
2022-09-23T08:50:00.275Z,101601.09
2022-09-23T08:52:36.963Z,101605.13
2022-09-23T08:55:06.067Z,101604.09
2022-09-23T08:57:36.498Z,101599.69
2022-09-23T09:00:05.976Z,101596.22
2022-09-23T09:02:36.337Z,101602.41
2022-09-23T09:05:09.096Z,101600.41
2022-09-23T09:07:40.029Z,101595.13
2022-09-23T09:10:13.594Z,101605.16
2022-09-23T09:12:48.655Z,101596.31
2022-09-23T09:15:26.615Z,101600.53
2022-09-23T09:18:03.042Z,101601.25
2022-09-23T09:20:38.975Z,101596.06
2022-09-23T09:23:46.693Z,101599.28
2022-09-23T09:26:22.683Z,101594.78
2022-09-23T09:28:59.073Z,101594.06
2022-09-23T09:31:39.278Z,101593.56
2022-09-23T09:34:34.072Z,101593.19
2022-09-23T09:37:06.734Z,101560.88
2022-09-23T09:39:35.948Z,101591.00
2022-09-23T09:42:06.484Z,101585.31
2022-09-23T09:44:44.947Z,101586.63
2022-09-23T09:47:29.561Z,101582.97
2022-09-23T09:50:04.575Z,101577.84
2022-09-23T09:52:32.364Z,101578.69
2022-09-23T09:55:15.033Z,101583.34
2022-09-23T09:57:57.551Z,101576.06
2022-09-23T10:00:26.310Z,101584.38
2022-09-23T10:02:56.543Z,101581.75
2022-09-23T10:05:33.267Z,101559.22
2022-09-23T10:08:28.527Z,101571.44
2022-09-23T10:11:18.076Z,101557.91
2022-09-23T10:14:18.579Z,101555.81
2022-09-23T10:16:48.841Z,101556.91
2022-09-23T10:19:26.853Z,101546.16
2022-09-23T10:21:59.851Z,101553.19
2022-09-23T10:24:30.969Z,101549.91
2022-09-23T10:27:04.474Z,101539.53
2022-09-23T10:29:49.578Z,101538.75
2022-09-23T10:32:22.575Z,101539.06
2022-09-23T10:34:54.890Z,101540.28
2022-09-23T10:37:29.645Z,101538.53
2022-09-23T10:40:15.071Z,101539.63
2022-09-23T10:43:08.745Z,101550.25
2022-09-23T10:45:58.265Z,101548.97
2022-09-23T10:48:35.835Z,101554.81
2022-09-23T10:51:14.435Z,101545.56
2022-09-23T10:54:07.375Z,101552.41
2022-09-23T10:56:47.435Z,101545.16
2022-09-23T10:59:30.283Z,101547.34
2022-09-23T11:02:17.099Z,101542.69
2022-09-23T11:04:51.772Z,101548.47
2022-09-23T11:07:37.284Z,101547.63
2022-09-23T11:10:46.446Z,101541.47
2022-09-23T11:13:41.112Z,101547.00
2022-09-23T11:16:47.778Z,101551.78
2022-09-23T11:19:56.494Z,101546.31
2022-09-23T11:22:57.848Z,101547.75
2022-09-23T11:25:37.248Z,101539.22
2022-09-23T11:28:18.012Z,101535.06
2022-09-23T11:30:54.201Z,101529.81
2022-09-23T11:33:30.544Z,101539.09
2022-09-23T11:36:03.834Z,101528.13
2022-09-23T11:38:38.501Z,101529.84
2022-09-23T11:41:20.751Z,101531.56
2022-09-23T11:43:52.270Z,101527.94
2022-09-23T11:46:34.039Z,101528.81
2022-09-23T11:49:04.864Z,101531.38
2022-09-23T11:51:43.632Z,101519.53
2022-09-23T11:54:20.847Z,101518.47
2022-09-23T11:56:53.562Z,101516.97
2022-09-23T11:59:41.241Z,101519.97
2022-09-23T12:02:29.647Z,101516.72
2022-09-23T12:05:12.373Z,101519.16
2022-09-23T12:07:40.694Z,101507.13
2022-09-23T12:10:10.284Z,101505.03
2022-09-23T12:13:04.783Z,101506.66
2022-09-23T12:15:53.526Z,101505.88
2022-09-23T12:18:43.396Z,101491.97
2022-09-23T12:21:38.729Z,101499.84
2022-09-23T12:24:38.577Z,101494.28
2022-09-23T12:27:12.886Z,101490.16
2022-09-23T12:29:42.243Z,101484.47
2022-09-23T12:32:18.745Z,101498.44
2022-09-23T12:34:51.923Z,101498.56
2022-09-23T12:37:43.359Z,101488.25
2022-09-23T12:40:24.012Z,101484.91
2022-09-23T12:42:52.334Z,101487.19
2022-09-23T12:45:32.496Z,101485.75
2022-09-23T12:48:05.347Z,101481.91
2022-09-23T12:51:05.316Z,101474.81
2022-09-23T12:53:35.603Z,101481.47
2022-09-23T12:56:17.144Z,101475.13
2022-09-23T12:58:44.690Z,101472.16
2022-09-23T13:01:21.725Z,101473.88
2022-09-23T13:04:17.129Z,101472.78
2022-09-23T13:06:59.030Z,101469.81
2022-09-23T13:09:32.471Z,101476.22
2022-09-23T13:12:03.617Z,101470.16
2022-09-23T13:14:33.889Z,101467.44
2022-09-23T13:17:01.882Z,101472.19
2022-09-23T13:19:29.330Z,101474.47
2022-09-23T13:22:12.139Z,101452.47
2022-09-23T13:24:45.437Z,101465.22
2022-09-23T13:27:21.285Z,101469.03
2022-09-23T13:30:14.996Z,101463.56
2022-09-23T13:32:51.617Z,101458.28
2022-09-23T13:35:42.904Z,101464.00
2022-09-23T13:38:26.156Z,101457.13
2022-09-23T13:41:02.186Z,101452.03
2022-09-23T13:43:41.553Z,101444.41
2022-09-23T13:46:14.474Z,101442.56
2022-09-23T13:48:45.309Z,101445.69
2022-09-23T13:51:24.658Z,101449.88
2022-09-23T13:53:57.447Z,101446.81
2022-09-23T13:56:27.884Z,101450.00
2022-09-23T13:59:11.446Z,101443.00
2022-09-23T14:01:39.002Z,101433.94
2022-09-23T14:04:06.684Z,101413.06
2022-09-23T14:06:42.099Z,101431.88
2022-09-23T14:09:09.664Z,101431.84
2022-09-23T14:11:37.239Z,101425.63
2022-09-23T14:14:07.127Z,101427.38
2022-09-23T14:16:39.323Z,101415.00
2022-09-23T14:19:07.856Z,101409.72
2022-09-23T14:21:41.033Z,101415.09
2022-09-23T14:24:11.578Z,101409.16
2022-09-23T14:26:40.855Z,101422.31
2022-09-23T14:29:16.505Z,101414.47
2022-09-23T14:31:56.629Z,101413.22
2022-09-23T14:34:48.093Z,101408.50
2022-09-23T14:37:51.111Z,101408.13
2022-09-23T14:40:25.817Z,101407.59
2022-09-23T14:43:18.084Z,101400.38
2022-09-23T14:45:53.488Z,101399.69
2022-09-23T14:48:25.753Z,101389.53
2022-09-23T14:50:58.663Z,101392.09
2022-09-23T14:53:29.240Z,101382.72
2022-09-23T14:56:08.167Z,101392.22
2022-09-23T14:59:02.027Z,101382.56
2022-09-23T15:01:32.760Z,101388.63
2022-09-23T15:04:10.214Z,101382.56
2022-09-23T15:06:40.615Z,101377.47
2022-09-23T15:09:08.446Z,101395.09
2022-09-23T15:11:36.929Z,101385.22
2022-09-23T15:14:26.360Z,101378.72
2022-09-23T15:16:54.414Z,101380.81
2022-09-23T15:19:23.732Z,101387.06
2022-09-23T15:21:54.709Z,101388.16
2022-09-23T15:24:46.172Z,101386.66
2022-09-23T15:27:35.254Z,101380.75
2022-09-23T15:30:18.679Z,101379.63
2022-09-23T15:32:47.225Z,101365.91
2022-09-23T15:35:20.961Z,101391.13
2022-09-23T15:37:51.484Z,101383.34
2022-09-23T15:40:28.125Z,101389.56
2022-09-23T15:42:58.905Z,101388.88
2022-09-23T15:45:31.415Z,101381.09
2022-09-23T15:48:03.202Z,101384.75
2022-09-23T15:50:31.453Z,101382.34
2022-09-23T15:52:59.289Z,101376.53
2022-09-23T15:55:26.841Z,101382.16
2022-09-23T15:57:54.421Z,101386.84
2022-09-23T16:00:21.992Z,101391.50
2022-09-23T16:02:50.517Z,101386.50
2022-09-23T16:05:37.742Z,101388.44
2022-09-23T16:08:09.156Z,101387.78
2022-09-23T16:10:37.758Z,101388.81
2022-09-23T16:13:08.955Z,101390.75
2022-09-23T16:15:38.975Z,101395.22
2022-09-23T16:18:08.047Z,101389.25
2022-09-23T16:20:38.772Z,101398.09
2022-09-23T16:23:19.571Z,101382.50
2022-09-23T16:25:47.124Z,101394.78
2022-09-23T16:28:14.642Z,101389.59
2022-09-23T16:30:42.097Z,101396.66
2022-09-23T16:33:09.637Z,101391.47
2022-09-23T16:35:38.561Z,101390.00
2022-09-23T16:38:06.027Z,101400.50
2022-09-23T16:40:33.934Z,101397.06
2022-09-23T16:43:04.959Z,101397.06
2022-09-23T16:45:32.507Z,101403.41
2022-09-23T16:48:00.371Z,101406.16
2022-09-23T16:50:29.249Z,101408.00
2022-09-23T16:52:56.964Z,101404.63
2022-09-23T16:55:27.242Z,101395.22
2022-09-23T16:57:55.493Z,101406.63
2022-09-23T17:00:41.492Z,101410.25
2022-09-23T17:03:26.594Z,101414.69
2022-09-23T17:05:55.314Z,101413.03
2022-09-23T17:08:23.045Z,101409.63
2022-09-23T17:10:58.347Z,101413.16
2022-09-23T17:13:27.410Z,101415.84
2022-09-23T17:15:55.358Z,101416.03
2022-09-23T17:18:23.218Z,101419.56
2022-09-23T17:21:07.953Z,101414.38
2022-09-23T17:23:37.462Z,101424.00
2022-09-23T17:26:09.673Z,101412.75
2022-09-23T17:28:37.069Z,101416.28
2022-09-23T17:31:06.875Z,101407.63
2022-09-23T17:33:37.239Z,101413.81
2022-09-23T17:36:13.361Z,101406.00
2022-09-23T17:38:43.234Z,101411.31
2022-09-23T17:41:10.928Z,101407.00
2022-09-23T17:43:38.433Z,101420.16
2022-09-23T17:46:14.537Z,101410.59
2022-09-23T17:48:43.247Z,101397.56
2022-09-23T17:51:20.049Z,101408.06
2022-09-23T17:53:49.366Z,101404.59
2022-09-23T17:56:29.780Z,101399.44
2022-09-23T17:59:01.537Z,101409.00
2022-09-23T18:01:29.259Z,101402.91
2022-09-23T18:03:57.440Z,101397.72
2022-09-23T18:06:26.738Z,101400.38
2022-09-23T18:08:55.864Z,101403.88
2022-09-23T18:11:28.936Z,101405.63
2022-09-23T18:13:59.927Z,101408.22
2022-09-23T18:16:35.545Z,101399.53
2022-09-23T18:19:04.728Z,101403.88
2022-09-23T18:21:35.028Z,101401.28
2022-09-23T18:26:51.086Z,101410.06
2022-09-23T18:29:19.543Z,101415.28
2022-09-23T18:31:49.332Z,101404.84
2022-09-23T18:34:17.314Z,101412.69
2022-09-23T18:36:45.410Z,101404.81
2022-09-23T18:39:13.312Z,101412.66
2022-09-23T18:41:41.203Z,101403.91
2022-09-23T18:44:09.000Z,101401.50
2022-09-23T18:46:37.157Z,101399.78
2022-09-23T18:49:22.332Z,101406.63
2022-09-23T18:51:53.643Z,101411.91
2022-09-23T18:54:21.645Z,101412.75
2022-09-23T18:56:49.496Z,101401.53
2022-09-23T18:59:20.375Z,101401.59
2022-09-23T19:01:50.064Z,101413.81
2022-09-23T19:04:20.112Z,101420.81
2022-09-23T19:06:47.719Z,101403.38
2022-09-23T19:09:16.543Z,101405.97
2022-09-23T19:11:44.350Z,101406.88
2022-09-23T19:14:12.846Z,101406.00
2022-09-23T19:16:41.530Z,101403.38
2022-09-23T19:19:09.778Z,101405.09
2022-09-23T19:21:37.866Z,101399.88
2022-09-23T19:24:08.151Z,101401.66
2022-09-23T19:26:40.198Z,101405.09
2022-09-23T19:29:12.671Z,101403.41
2022-09-23T19:31:41.510Z,101396.47
2022-09-23T19:34:16.558Z,101395.69
2022-09-23T19:36:45.847Z,101396.56
2022-09-23T19:39:22.171Z,101393.91
2022-09-23T19:41:50.821Z,101393.06
2022-09-23T19:44:19.872Z,101395.63
2022-09-23T19:46:53.462Z,101396.56
2022-09-23T19:49:23.876Z,101389.59
2022-09-23T19:51:51.439Z,101387.81
2022-09-23T19:54:21.014Z,101398.25
2022-09-23T19:56:50.900Z,101388.78
2022-09-23T19:59:19.527Z,101392.25
2022-09-23T20:01:48.701Z,101395.69
2022-09-23T20:04:17.419Z,101386.13
2022-09-23T20:06:45.905Z,101393.13
2022-09-23T20:09:13.631Z,101388.78
2022-09-23T20:11:44.104Z,101393.13
2022-09-23T20:14:12.963Z,101386.13
2022-09-23T20:16:40.513Z,101375.78
2022-09-23T20:19:08.091Z,101372.34
2022-09-23T20:21:36.349Z,101383.63
2022-09-23T20:24:06.482Z,101381.03
2022-09-23T20:26:51.362Z,101379.28
2022-09-23T20:29:18.877Z,101377.63
2022-09-23T20:31:46.425Z,101375.88
2022-09-23T20:34:13.957Z,101382.84
2022-09-23T20:36:42.492Z,101371.56
2022-09-23T20:39:10.904Z,101368.97
2022-09-23T20:41:39.830Z,101374.22
2022-09-23T20:44:13.829Z,101373.31
2022-09-23T20:46:47.814Z,101357.72
2022-09-23T20:49:17.736Z,101362.97
2022-09-23T20:51:45.535Z,101358.63
2022-09-23T20:54:13.105Z,101361.19
2022-09-23T20:56:40.894Z,101355.13
2022-09-23T20:59:08.618Z,101352.56
2022-09-23T21:01:37.001Z,101356.88
2022-09-23T21:04:07.562Z,101349.97
2022-09-23T21:06:39.221Z,101351.75
2022-09-23T21:09:07.765Z,101350.88
2022-09-23T21:11:35.671Z,101344.72
2022-09-23T21:14:05.245Z,101340.44
2022-09-23T21:16:34.040Z,101336.09
2022-09-23T21:19:02.893Z,101339.59
2022-09-23T21:21:30.551Z,101330.91
2022-09-23T21:24:17.360Z,101340.53
2022-09-23T21:26:47.816Z,101331.00
2022-09-23T21:29:15.279Z,101338.75
2022-09-23T21:31:42.819Z,101336.16
2022-09-23T21:34:12.463Z,101334.47
2022-09-23T21:36:42.766Z,101343.19
2022-09-23T21:39:12.058Z,101335.34
2022-09-23T21:41:40.499Z,101345.78
2022-09-23T21:44:08.704Z,101337.91
2022-09-23T21:46:37.122Z,101330.13
2022-09-23T21:49:05.302Z,101336.13
2022-09-23T21:51:37.694Z,101333.50
2022-09-23T21:54:05.963Z,101330.91
2022-09-23T21:56:36.560Z,101329.25
2022-09-23T21:59:05.106Z,101331.00
2022-09-23T22:01:38.227Z,101325.81
2022-09-23T22:04:10.099Z,101336.19
2022-09-23T22:06:39.770Z,101336.16
2022-09-23T22:09:10.162Z,101344.88
2022-09-23T22:11:57.435Z,101328.25
2022-09-23T22:14:26.581Z,101332.69
2022-09-23T22:16:57.572Z,101333.56
2022-09-23T22:19:34.708Z,101327.44
2022-09-23T22:22:03.744Z,101335.31
2022-09-23T22:24:31.225Z,101330.09
2022-09-23T22:26:58.683Z,101333.56
2022-09-23T22:29:43.571Z,101332.75
2022-09-23T22:32:29.961Z,101324.13
2022-09-23T22:34:57.896Z,101326.72
2022-09-23T22:37:30.340Z,101321.50
2022-09-23T22:39:58.124Z,101325.84
2022-09-23T22:42:26.162Z,101323.28
2022-09-23T22:44:55.459Z,101319.78
2022-09-23T22:47:23.591Z,101323.28
2022-09-23T22:49:55.318Z,101318.94
2022-09-23T22:52:24.400Z,101317.22
2022-09-23T22:54:53.081Z,101316.41
2022-09-23T22:57:20.873Z,101318.28
2022-09-23T22:59:49.003Z,101319.13
2022-09-23T23:02:21.838Z,101313.94
2022-09-23T23:04:50.030Z,101307.91
2022-09-23T23:07:21.767Z,101314.06
2022-09-23T23:09:53.273Z,101310.63
2022-09-23T23:12:21.335Z,101309.72
2022-09-23T23:14:50.048Z,101302.78
2022-09-23T23:17:18.953Z,101303.72
2022-09-23T23:19:46.713Z,101308.91
2022-09-23T23:22:14.292Z,101301.97
2022-09-23T23:24:41.788Z,101302.88
2022-09-23T23:27:09.250Z,101302.03
2022-09-23T23:29:36.807Z,101308.19
2022-09-23T23:32:05.062Z,101308.22
2022-09-23T23:34:32.521Z,101305.63
2022-09-23T23:36:59.977Z,101303.91
2022-09-23T23:39:27.434Z,101301.25
2022-09-23T23:41:56.850Z,101298.66
2022-09-23T23:44:25.567Z,101300.41
2022-09-23T23:46:54.052Z,101298.66
2022-09-23T23:49:21.905Z,101296.94
2022-09-23T23:51:49.722Z,101303.91
2022-09-23T23:54:17.520Z,101309.13
2022-09-23T23:56:45.329Z,101295.28
2022-09-23T23:59:12.991Z,101302.19
